Time;durP1;ratioP1;P1;durP2;ratioP2;P2;SDS_P1;SDS_P2;PMS_P1;PMS_P2;Temp;Humidity;BMP_temperature;BMP_pressure;BME280_temperature;BME280_humidity;BME280_pressure;Samples;Min_cycle;Max_cycle;Signal;HPM_P1;HPM_P2
2020/12/02 00:01:48;;;;;;;;;;;;;;;2.11;89.78;102065.53;4993277;28;19914;-73
2020/12/02 00:04:15;;;;;;;;;;;;;;;2.01;89.92;102063.41;4994023;28;19925;-73
2020/12/02 00:06:41;;;;;;;;;;;;;;;2.06;90.28;102059.63;4993944;28;19917;-73
2020/12/02 00:09:18;;;;;;;;;;;;;;;2.00;90.15;102049.38;5009556;28;19975;-73
2020/12/02 00:11:43;;;;;;;;;;;;;;;2.10;90.18;102055.06;4993103;28;20282;-72
2020/12/02 00:14:12;;;;;;;;;;;;;;;2.09;90.21;102048.94;4994066;28;19938;-73
2020/12/02 00:16:38;;;;;;;;;;;;;;;2.14;90.20;102053.13;4992811;28;19913;-73
2020/12/02 00:19:03;;;;;;;;;;;;;;;2.09;90.04;102053.34;4993986;28;19940;-73
2020/12/02 00:21:30;;;;;;;;;;;;;;;2.12;90.23;102050.56;4993954;28;19917;-73
2020/12/02 00:23:56;;;;;;;;;;;;;;;2.15;90.20;102047.75;4992706;28;19949;-72
2020/12/02 00:26:21;;;;;;;;;;;;;;;2.10;90.42;102052.41;4992627;28;19913;-73
2020/12/02 00:28:47;;;;;;;;;;;;;;;2.18;90.36;102058.19;5009133;28;19914;-72
2020/12/02 00:31:13;;;;;;;;;;;;;;;2.22;90.33;102056.22;5009022;28;20335;-72
2020/12/02 00:33:38;;;;;;;;;;;;;;;2.21;90.20;102057.16;4993700;28;20079;-72
2020/12/02 00:36:03;;;;;;;;;;;;;;;2.23;90.43;102055.31;5008796;28;19920;-72
2020/12/02 00:38:29;;;;;;;;;;;;;;;2.24;90.44;102054.38;4992519;28;19921;-73
2020/12/02 00:40:54;;;;;;;;;;;;;;;2.27;90.54;102054.19;4993420;28;19922;-72
2020/12/02 00:43:21;;;;;;;;;;;;;;;2.30;90.54;102054.91;4992541;28;19922;-72
2020/12/02 00:45:48;;;;;;;;;;;;;;;2.34;90.40;102045.06;4992044;28;20374;-73
2020/12/02 00:48:18;;;;;;;;;;;;;;;2.25;90.23;102049.03;4992484;28;20375;-73
2020/12/02 00:50:43;;;;;;;;;;;;;;;2.21;90.21;102046.63;4993378;28;19945;-73
2020/12/02 00:53:11;;;;;;;;;;;;;;;2.17;90.47;102040.63;4992318;28;19924;-73
2020/12/02 00:55:36;;;;;;;;;;;;;;;2.09;90.35;102050.72;4992085;28;20004;-72
2020/12/02 00:58:02;;;;;;;;;;;;;;;2.08;90.63;102049.88;4992291;28;19921;-72
2020/12/02 01:00:28;;;;;;;;;;;;;;;2.09;90.76;102048.09;4993032;28;19933;-72
2020/12/02 01:03:06;;;;;;;;;;;;;;;2.19;90.67;102053.75;4992963;28;19918;-72
2020/12/02 01:05:33;;;;;;;;;;;;;;;2.19;90.41;102053.75;4991455;28;19920;-72
2020/12/02 01:08:17;;;;;;;;;;;;;;;2.22;90.59;102054.44;4992860;28;20358;-73
2020/12/02 01:10:43;;;;;;;;;;;;;;;2.31;90.46;102050.50;4992907;28;19914;-72
2020/12/02 01:13:08;;;;;;;;;;;;;;;2.33;90.38;102051.28;4992877;28;19976;-72
2020/12/02 01:15:34;;;;;;;;;;;;;;;2.24;90.21;102043.81;4992675;28;20121;-72
2020/12/02 01:18:19;;;;;;;;;;;;;;;2.35;90.30;102030.97;4992856;28;20008;-73
2020/12/02 01:20:44;;;;;;;;;;;;;;;2.41;90.53;102035.94;4992967;28;20002;-73
2020/12/02 01:23:15;;;;;;;;;;;;;;;2.44;90.44;102030.50;5008241;28;19918;-72
2020/12/02 01:25:41;;;;;;;;;;;;;;;2.44;90.21;102034.94;5007913;28;19984;-72
2020/12/02 01:28:07;;;;;;;;;;;;;;;2.40;90.32;102036.84;5008241;28;19914;-72
2020/12/02 01:30:33;;;;;;;;;;;;;;;2.42;90.33;102035.00;4991808;28;19936;-72
2020/12/02 01:32:59;;;;;;;;;;;;;;;2.39;90.13;102027.25;4992506;28;19975;-73
2020/12/02 01:35:25;;;;;;;;;;;;;;;2.43;90.08;102025.28;4992605;28;20019;-72
2020/12/02 01:37:52;;;;;;;;;;;;;;;2.45;90.34;102026.91;4992328;28;19921;-72
2020/12/02 01:40:21;;;;;;;;;;;;;;;2.47;90.15;102025.06;4992585;28;19921;-73
2020/12/02 01:43:02;;;;;;;;;;;;;;;2.47;90.31;102027.69;4992361;28;19922;-72
2020/12/02 01:45:32;;;;;;;;;;;;;;;2.49;90.25;102022.34;4991481;28;19996;-73
2020/12/02 01:48:06;;;;;;;;;;;;;;;2.50;90.14;102014.34;4992324;28;19914;-72
2020/12/02 01:50:57;;;;;;;;;;;;;;;2.49;90.06;102027.63;4991446;28;19921;-72
2020/12/02 01:53:38;;;;;;;;;;;;;;;2.45;90.12;102026.91;4991180;28;19914;-72
2020/12/02 01:56:09;;;;;;;;;;;;;;;2.47;90.17;102021.56;4991161;28;19913;-72
2020/12/02 01:58:58;;;;;;;;;;;;;;;2.48;90.31;102024.16;4992484;28;19928;-72
2020/12/02 02:01:32;;;;;;;;;;;;;;;2.55;90.48;102027.28;4991446;28;20346;-72
2020/12/02 02:03:58;;;;;;;;;;;;;;;2.58;90.41;102028.94;4992331;28;19929;-73
2020/12/02 02:06:27;;;;;;;;;;;;;;;2.56;90.42;102022.91;4991079;28;19914;-72
2020/12/02 02:08:52;;;;;;;;;;;;;;;2.57;90.44;102028.06;4991380;28;20358;-72
2020/12/02 02:11:20;;;;;;;;;;;;;;;2.59;90.42;102022.72;4991183;28;19918;-72
2020/12/02 02:14:04;;;;;;;;;;;;;;;2.58;90.42;102021.03;5007667;28;19913;-72
2020/12/02 02:16:31;;;;;;;;;;;;;;;2.49;90.25;102023.19;4995037;28;19917;-73
2020/12/02 02:18:57;;;;;;;;;;;;;;;2.53;90.31;102019.47;4995225;28;20339;-73
2020/12/02 02:21:26;;;;;;;;;;;;;;;2.47;90.32;102019.78;4995197;28;20060;-72
2020/12/02 02:23:52;;;;;;;;;;;;;;;2.51;90.59;102018.72;5011368;28;19918;-72
2020/12/02 02:26:36;;;;;;;;;;;;;;;2.58;90.69;102013.13;4995874;28;20418;-73
2020/12/02 02:29:14;;;;;;;;;;;;;;;2.44;90.33;102014.69;4996074;28;19913;-72
2020/12/02 02:31:45;;;;;;;;;;;;;;;2.39;90.75;102008.81;4994961;28;19917;-72
2020/12/02 02:34:10;;;;;;;;;;;;;;;2.31;90.75;102011.81;4994940;28;19917;-72
2020/12/02 02:36:35;;;;;;;;;;;;;;;2.25;91.10;102014.78;5011034;28;19921;-72
2020/12/02 02:39:00;;;;;;;;;;;;;;;2.30;91.05;102017.19;4994835;28;19953;-72
2020/12/02 02:41:27;;;;;;;;;;;;;;;2.31;91.32;102014.44;4994713;28;20224;-72
2020/12/02 02:43:52;;;;;;;;;;;;;;;2.42;91.25;102010.44;4994684;28;19975;-72
2020/12/02 02:46:17;;;;;;;;;;;;;;;2.50;91.25;102009.06;4994371;28;20012;-72
2020/12/02 02:48:43;;;;;;;;;;;;;;;2.61;91.21;101999.78;4994535;28;20368;-72
2020/12/02 02:51:08;;;;;;;;;;;;;;;2.65;90.88;101996.06;4995569;28;19928;-72
2020/12/02 02:53:33;;;;;;;;;;;;;;;2.62;90.72;102006.75;4994565;28;19971;-72
2020/12/02 02:55:58;;;;;;;;;;;;;;;2.56;90.70;102007.91;4995262;28;20382;-72
2020/12/02 02:58:25;;;;;;;;;;;;;;;2.56;90.68;102007.09;5010972;28;19922;-72
2020/12/02 03:00:52;;;;;;;;;;;;;;;2.46;90.83;102004.91;4995443;28;20343;-72
2020/12/02 03:03:18;;;;;;;;;;;;;;;2.51;90.89;101994.13;4995179;28;19918;-72
2020/12/02 03:05:43;;;;;;;;;;;;;;;2.51;90.75;101997.63;4995061;28;20433;-72
2020/12/02 03:08:10;;;;;;;;;;;;;;;2.59;90.77;101996.38;4994389;28;19969;-72
2020/12/02 03:10:37;;;;;;;;;;;;;;;2.66;90.71;101992.47;4995180;28;20352;-72
2020/12/02 03:13:13;;;;;;;;;;;;;;;2.70;90.73;101988.75;4995179;28;19913;-72
2020/12/02 03:15:38;;;;;;;;;;;;;;;2.73;90.41;101989.41;5010193;28;20262;-72
2020/12/02 03:18:03;;;;;;;;;;;;;;;2.60;90.07;101992.78;4993989;28;19918;-72
2020/12/02 03:20:39;;;;;;;;;;;;;;;2.66;90.05;101985.41;4994212;28;19918;-72
2020/12/02 03:23:08;;;;;;;;;;;;;;;2.67;89.98;101978.34;4994796;28;19926;-72
2020/12/02 03:25:34;;;;;;;;;;;;;;;2.68;89.84;101975.63;4994689;28;20506;-72
2020/12/02 03:27:59;;;;;;;;;;;;;;;2.63;89.75;101987.38;4993953;28;19933;-72
2020/12/02 03:30:25;;;;;;;;;;;;;;;2.60;89.72;101984.88;4994753;28;19917;-72
2020/12/02 03:32:50;;;;;;;;;;;;;;;2.69;89.88;101981.75;4993875;28;19910;-72
2020/12/02 03:35:15;;;;;;;;;;;;;;;2.67;89.60;101978.34;4993733;28;19918;-72
2020/12/02 03:37:41;;;;;;;;;;;;;;;2.60;89.20;101979.59;4993583;28;19921;-72
2020/12/02 03:40:07;;;;;;;;;;;;;;;2.55;89.41;101974.56;4993847;28;19945;-72
2020/12/02 03:42:32;;;;;;;;;;;;;;;2.54;89.38;101979.00;4994509;28;19914;-72
2020/12/02 03:44:57;;;;;;;;;;;;;;;2.50;88.96;101977.44;4994476;28;20254;-72
2020/12/02 03:47:23;;;;;;;;;;;;;;;2.60;88.92;101976.97;4994270;28;19983;-72
2020/12/02 03:49:48;;;;;;;;;;;;;;;2.62;88.64;101983.00;4993616;28;20723;-72
2020/12/02 03:52:13;;;;;;;;;;;;;;;2.53;88.63;101976.47;4993595;28;20563;-72
2020/12/02 03:54:38;;;;;;;;;;;;;;;2.52;88.78;101974.72;4994518;28;19944;-72
2020/12/02 03:57:04;;;;;;;;;;;;;;;2.56;88.54;101959.63;4994169;28;19940;-72
2020/12/02 03:59:29;;;;;;;;;;;;;;;2.37;88.60;101971.13;4993258;28;20343;-72
2020/12/02 04:01:55;;;;;;;;;;;;;;;2.44;88.75;101969.03;4994256;28;19914;-72
2020/12/02 04:04:20;;;;;;;;;;;;;;;2.56;88.72;101967.53;4994209;28;19929;-72
2020/12/02 04:06:45;;;;;;;;;;;;;;;2.51;88.49;101958.06;4993923;28;20024;-72
2020/12/02 04:09:10;;;;;;;;;;;;;;;2.50;88.58;101956.34;4993239;28;19957;-72
2020/12/02 04:11:35;;;;;;;;;;;;;;;2.48;88.45;101960.00;4994179;28;19913;-72
2020/12/02 04:14:01;;;;;;;;;;;;;;;2.45;88.57;101947.84;4993214;28;19913;-72
2020/12/02 04:16:26;;;;;;;;;;;;;;;2.56;88.65;101955.19;4993640;28;19917;-72
2020/12/02 04:18:51;;;;;;;;;;;;;;;2.59;88.71;101956.81;4993991;28;20251;-72
2020/12/02 04:21:23;;;;;;;;;;;;;;;2.61;88.73;101947.03;4993886;28;19975;-72
2020/12/02 04:23:48;;;;;;;;;;;;;;;2.59;89.06;101951.53;4993767;28;19921;-72
2020/12/02 04:26:14;;;;;;;;;;;;;;;2.49;89.59;101949.38;4993551;28;20640;-72
2020/12/02 04:28:39;;;;;;;;;;;;;;;2.60;89.44;101946.19;4993724;28;19986;-72
2020/12/02 04:31:04;;;;;;;;;;;;;;;2.64;89.43;101947.72;4992823;28;19953;-72
2020/12/02 04:33:29;;;;;;;;;;;;;;;2.65;89.35;101943.31;4992622;28;19913;-72
2020/12/02 04:35:55;;;;;;;;;;;;;;;2.52;89.56;101943.09;4992528;28;19917;-72
2020/12/02 04:38:20;;;;;;;;;;;;;;;2.49;89.49;101938.84;4993508;28;19913;-72
2020/12/02 04:40:45;;;;;;;;;;;;;;;2.48;89.71;101936.28;4993586;28;20029;-72
2020/12/02 04:43:25;;;;;;;;;;;;;;;2.57;89.86;101938.44;4993412;28;20359;-72
2020/12/02 04:45:51;;;;;;;;;;;;;;;2.43;90.15;101936.50;5008684;28;19913;-72
2020/12/02 04:48:22;;;;;;;;;;;;;;;2.40;89.77;101939.31;4993383;28;19913;-72
2020/12/02 04:50:47;;;;;;;;;;;;;;;2.42;89.98;101933.97;4992459;28;19913;-72
2020/12/02 04:53:20;;;;;;;;;;;;;;;2.37;90.09;101943.91;4993261;28;19925;-72
2020/12/02 04:55:46;;;;;;;;;;;;;;;2.30;89.84;101948.66;4992954;28;19941;-72
2020/12/02 04:58:17;;;;;;;;;;;;;;;2.23;90.09;101942.84;4993196;28;19914;-72
2020/12/02 05:00:43;;;;;;;;;;;;;;;2.18;89.89;101944.88;4993192;28;19925;-72
2020/12/02 05:03:12;;;;;;;;;;;;;;;2.10;90.16;101941.75;4992968;28;19922;-71
2020/12/02 05:05:38;;;;;;;;;;;;;;;2.19;90.19;101940.44;4991876;28;19979;-72
2020/12/02 05:08:15;;;;;;;;;;;;;;;2.18;90.25;101934.34;4992139;28;20491;-72
2020/12/02 05:10:40;;;;;;;;;;;;;;;2.16;89.74;101933.56;4993126;28;20605;-72
2020/12/02 05:13:10;;;;;;;;;;;;;;;2.07;89.85;101934.88;4992994;28;19935;-71
2020/12/02 05:15:35;;;;;;;;;;;;;;;2.20;89.98;101929.84;4992671;28;19918;-72
2020/12/02 05:18:13;;;;;;;;;;;;;;;2.18;89.72;101923.78;4992941;28;20063;-72
2020/12/02 05:20:38;;;;;;;;;;;;;;;2.09;89.62;101924.25;4991945;28;19933;-71
2020/12/02 05:23:20;;;;;;;;;;;;;;;2.14;89.68;101924.03;4992604;28;20399;-71
2020/12/02 05:25:46;;;;;;;;;;;;;;;2.19;89.76;101920.22;4991482;28;19913;-71
2020/12/02 05:28:25;;;;;;;;;;;;;;;2.20;89.71;101932.47;4991898;28;20259;-71
2020/12/02 05:31:01;;;;;;;;;;;;;;;2.21;89.48;101933.31;4992725;28;19913;-71
2020/12/02 05:33:29;;;;;;;;;;;;;;;2.19;89.39;101930.75;4992459;28;19924;-71
2020/12/02 05:35:59;;;;;;;;;;;;;;;2.18;88.99;101936.09;4995417;28;20112;-71
2020/12/02 05:39:06;;;;;;;;;;;;;;;2.26;88.92;101926.03;5049656;28;19932;-71
2020/12/02 05:41:33;;;;;;;;;;;;;;;2.09;88.71;101930.38;5026874;28;20400;-71
2020/12/02 05:43:59;;;;;;;;;;;;;;;2.23;88.64;101942.00;5029171;28;19925;-71
2020/12/02 05:46:39;;;;;;;;;;;;;;;2.22;88.31;101940.28;5028843;28;19975;-71
2020/12/02 05:49:11;;;;;;;;;;;;;;;2.21;88.08;101936.81;5044773;28;19921;-71
2020/12/02 05:51:37;;;;;;;;;;;;;;;2.17;87.92;101931.75;5044746;28;20369;-71
2020/12/02 05:54:08;;;;;;;;;;;;;;;2.28;87.81;101930.28;5028881;28;20007;-71
2020/12/02 05:56:33;;;;;;;;;;;;;;;2.36;87.90;101931.66;5028714;28;20737;-71
2020/12/02 05:58:59;;;;;;;;;;;;;;;2.34;87.54;101931.72;5028769;28;19926;-71
2020/12/02 06:01:24;;;;;;;;;;;;;;;2.25;87.41;101930.44;5027860;28;19928;-71
2020/12/02 06:03:54;;;;;;;;;;;;;;;2.31;87.53;101927.47;5028833;28;19917;-71
2020/12/02 06:06:19;;;;;;;;;;;;;;;2.32;87.34;101923.06;5028525;28;19944;-71
2020/12/02 06:08:46;;;;;;;;;;;;;;;2.35;87.72;101920.28;5027617;28;20335;-71
2020/12/02 06:11:14;;;;;;;;;;;;;;;2.20;87.32;101927.19;5028749;28;19968;-71
2020/12/02 06:13:41;;;;;;;;;;;;;;;2.27;87.43;101922.44;5028656;28;19917;-71
2020/12/02 06:16:09;;;;;;;;;;;;;;;2.31;87.48;101924.00;5044009;28;19917;-71
2020/12/02 06:18:35;;;;;;;;;;;;;;;2.34;87.69;101918.53;5028540;28;19991;-71
2020/12/02 06:21:01;;;;;;;;;;;;;;;2.34;87.37;101918.53;5044200;28;20326;-71
2020/12/02 06:23:42;;;;;;;;;;;;;;;2.35;87.32;101915.00;5028368;28;19917;-71
2020/12/02 06:26:07;;;;;;;;;;;;;;;2.22;86.67;101909.50;5028197;28;19928;-71
2020/12/02 06:28:32;;;;;;;;;;;;;;;2.33;86.70;101922.13;5028344;28;19914;-71
2020/12/02 06:31:00;;;;;;;;;;;;;;;2.08;86.68;101927.81;5027290;28;19917;-71
2020/12/02 06:33:33;;;;;;;;;;;;;;;2.12;87.19;101929.38;5027321;28;19928;-71
2020/12/02 06:36:08;;;;;;;;;;;;;;;2.21;87.64;101923.63;5026858;28;19917;-71
2020/12/02 06:38:33;;;;;;;;;;;;;;;2.21;87.14;101918.34;5043783;28;19921;-71
2020/12/02 06:40:58;;;;;;;;;;;;;;;2.27;87.36;101918.03;5048034;28;19933;-71
2020/12/02 06:43:24;;;;;;;;;;;;;;;2.33;87.48;101916.84;5030442;28;20050;-71
2020/12/02 06:45:49;;;;;;;;;;;;;;;2.35;87.26;101920.28;5046602;28;19943;-71
2020/12/02 06:48:28;;;;;;;;;;;;;;;2.37;87.23;101915.78;5046278;28;19917;-71
2020/12/02 06:50:57;;;;;;;;;;;;;;;2.30;87.15;101919.66;5034452;28;19917;-71
2020/12/02 06:53:22;;;;;;;;;;;;;;;2.07;86.97;101926.97;5034498;28;19967;-71
2020/12/02 06:55:49;;;;;;;;;;;;;;;2.04;87.45;101927.13;5033254;28;19928;-71
2020/12/02 06:58:18;;;;;;;;;;;;;;;1.90;87.41;101924.34;5033374;28;19925;-70
2020/12/02 07:00:45;;;;;;;;;;;;;;;1.85;87.78;101926.34;5033165;28;19921;-70
2020/12/02 07:03:13;;;;;;;;;;;;;;;2.26;89.27;101913.69;5033308;28;19917;-71
2020/12/02 07:05:43;;;;;;;;;;;;;;;1.89;87.57;101920.00;5033541;28;19921;-71
2020/12/02 07:08:13;;;;;;;;;;;;;;;1.89;87.61;101927.91;5033203;28;19951;-70
2020/12/02 07:10:40;;;;;;;;;;;;;;;1.89;87.40;101925.25;5033398;28;20036;-71
2020/12/02 07:13:05;;;;;;;;;;;;;;;1.90;87.44;101921.72;5034130;28;20007;-71
2020/12/02 07:15:30;;;;;;;;;;;;;;;1.83;86.53;101928.22;5032821;28;20004;-71
2020/12/02 07:18:12;;;;;;;;;;;;;;;1.89;86.73;101918.22;5033876;28;19928;-72
2020/12/02 07:20:37;;;;;;;;;;;;;;;1.80;86.72;101907.28;5033030;28;20400;-71
2020/12/02 07:23:03;;;;;;;;;;;;;;;1.75;86.99;101904.88;5034014;28;20005;-71
2020/12/02 07:25:28;;;;;;;;;;;;;;;1.78;87.00;101909.16;5033797;28;20733;-71
2020/12/02 07:27:53;;;;;;;;;;;;;;;1.81;86.71;101895.84;5032669;28;20305;-71
2020/12/02 07:30:25;;;;;;;;;;;;;;;1.77;86.90;101897.78;5032802;28;19928;-71
2020/12/02 07:32:52;;;;;;;;;;;;;;;1.69;86.95;101894.69;5033843;28;19917;-71
2020/12/02 07:35:17;;;;;;;;;;;;;;;1.69;86.90;101902.59;5032733;28;19960;-71
2020/12/02 07:37:43;;;;;;;;;;;;;;;1.68;86.40;101899.06;5033165;28;20266;-71
2020/12/02 07:40:24;;;;;;;;;;;;;;;1.72;86.70;101893.69;5033704;28;19921;-70
2020/12/02 07:42:49;;;;;;;;;;;;;;;1.72;86.31;101883.16;5032660;28;20602;-71
2020/12/02 07:45:14;;;;;;;;;;;;;;;1.72;86.74;101888.41;5033566;28;19978;-71
2020/12/02 07:47:42;;;;;;;;;;;;;;;1.73;86.56;101890.09;5032226;28;20358;-71
2020/12/02 07:50:22;;;;;;;;;;;;;;;1.74;86.90;101886.56;5033447;28;20030;-71
2020/12/02 07:52:48;;;;;;;;;;;;;;;1.72;86.83;101883.16;5033446;28;20438;-72
2020/12/02 07:55:16;;;;;;;;;;;;;;;1.67;86.72;101876.31;5032430;28;20016;-71
2020/12/02 07:57:41;;;;;;;;;;;;;;;1.69;86.64;101886.78;5033033;28;19921;-71
2020/12/02 08:00:17;;;;;;;;;;;;;;;1.65;87.08;101885.22;5032794;28;19971;-71
2020/12/02 08:02:43;;;;;;;;;;;;;;;1.78;87.37;101885.44;5032846;28;19928;-71
2020/12/02 08:05:27;;;;;;;;;;;;;;;1.74;86.98;101883.94;5033148;28;19925;-71
2020/12/02 08:08:02;;;;;;;;;;;;;;;1.68;87.25;101878.00;5031903;28;19917;-71
2020/12/02 08:10:33;;;;;;;;;;;;;;;1.78;87.42;101877.53;5033025;28;19932;-71
2020/12/02 08:13:01;;;;;;;;;;;;;;;1.80;87.24;101880.97;5031936;28;19928;-71
2020/12/02 08:15:26;;;;;;;;;;;;;;;1.83;87.32;101872.94;5031873;28;19917;-71
2020/12/02 08:17:59;;;;;;;;;;;;;;;1.82;87.34;101873.84;5031561;28;19928;-71
2020/12/02 08:20:30;;;;;;;;;;;;;;;1.71;86.94;101866.50;5032939;28;20388;-71
2020/12/02 08:22:57;;;;;;;;;;;;;;;1.71;86.86;101876.16;5032831;28;19917;-71
2020/12/02 08:25:33;;;;;;;;;;;;;;;1.66;87.22;101876.38;5032740;28;19964;-71
2020/12/02 08:28:00;;;;;;;;;;;;;;;1.74;87.55;101873.38;5032620;28;19931;-73
2020/12/02 08:30:27;;;;;;;;;;;;;;;1.81;87.48;101874.78;5031628;28;19917;-71
2020/12/02 08:32:56;;;;;;;;;;;;;;;1.81;87.47;101870.34;5031734;28;19990;-71
2020/12/02 08:35:26;;;;;;;;;;;;;;;1.91;87.37;101868.09;5032578;28;19917;-71
2020/12/02 08:37:56;;;;;;;;;;;;;;;1.77;87.14;101870.59;5031175;28;19932;-71
2020/12/02 08:40:41;;;;;;;;;;;;;;;1.83;87.09;101867.66;5031501;28;19917;-71
2020/12/02 08:43:29;;;;;;;;;;;;;;;1.81;86.98;101866.88;5014101;28;19917;-71
2020/12/02 08:46:00;;;;;;;;;;;;;;;1.87;87.06;101862.16;5032091;28;19931;-71
2020/12/02 08:48:26;;;;;;;;;;;;;;;2.00;86.65;101862.34;5030828;28;20277;-71
2020/12/02 08:50:51;;;;;;;;;;;;;;;1.94;86.02;101860.03;5032216;28;19917;-71
2020/12/02 08:53:24;;;;;;;;;;;;;;;2.01;86.15;101863.19;5031132;28;19928;-71
2020/12/02 08:57:36;;;;;;;77.55;31.70;;;;;;;2.03;85.71;101853.44;5149370;27;20348;-71
2020/12/02 09:00:01;;;;;;;86.27;37.47;;;;;;;1.85;85.65;101857.88;5149683;27;20031;-71
2020/12/02 09:02:27;;;;;;;80.83;37.23;;;;;;;1.89;86.10;101856.78;5149789;27;20050;-71
2020/12/02 09:04:52;;;;;;;83.13;36.87;;;;;;;1.96;86.29;101850.28;5131696;27;20038;-71
2020/12/02 09:07:17;;;;;;;78.23;37.63;;;;;;;1.83;86.25;101854.50;5131208;27;20037;-71
2020/12/02 09:09:42;;;;;;;76.83;36.57;;;;;;;1.92;86.33;101848.75;5131385;27;20048;-71
2020/12/02 09:12:08;;;;;;;74.83;36.50;;;;;;;1.95;86.76;101853.00;5149381;27;20068;-71
2020/12/02 09:14:35;;;;;;;85.75;38.25;;;;;;;1.99;86.12;101834.34;5149945;27;20030;-71
2020/12/02 09:17:00;;;;;;;81.60;39.40;;;;;;;1.86;86.40;101838.53;5130863;27;20039;-71
2020/12/02 09:19:26;;;;;;;78.13;36.67;;;;;;;2.00;86.43;101833.38;5149402;27;20418;-71
2020/12/02 09:21:51;;;;;;;79.50;35.70;;;;;;;2.05;85.93;101828.72;5149268;27;20118;-71
2020/12/02 09:24:17;;;;;;;73.80;36.13;;;;;;;2.06;85.09;101827.81;5149338;27;20064;-71
2020/12/02 09:26:43;;;;;;;75.72;33.72;;;;;;;2.00;85.13;101828.13;5148808;27;20031;-71
2020/12/02 09:29:12;;;;;;;78.10;36.15;;;;;;;1.99;85.49;101829.06;5131106;27;20039;-71
2020/12/02 09:31:38;;;;;;;78.15;36.78;;;;;;;1.72;85.22;101798.91;5148166;27;20451;-71
2020/12/02 09:34:06;;;;;;;87.57;39.57;;;;;;;1.73;85.73;101819.84;5149307;27;20130;-71
2020/12/02 09:36:31;;;;;;;77.35;37.80;;;;;;;1.83;86.01;101813.22;5148784;27;20121;-71
2020/12/02 09:38:56;;;;;;;81.40;37.90;;;;;;;1.93;85.82;101810.94;5148042;27;20511;-71
2020/12/02 09:41:28;;;;;;;89.00;37.33;;;;;;;1.77;86.16;101807.41;5148725;27;20065;-71
2020/12/02 09:44:18;;;;;;;85.32;40.33;;;;;;;1.81;86.29;101803.69;5149283;27;20066;-70
2020/12/02 09:46:44;;;;;;;80.32;36.90;;;;;;;1.71;86.07;101805.06;5130270;27;20103;-70
2020/12/02 09:49:12;;;;;;;79.18;38.75;;;;;;;1.82;87.02;101800.09;5113522;27;20043;-70
2020/12/02 09:51:39;;;;;;;89.13;39.67;;;;;;;1.92;86.30;101800.47;5148484;27;20034;-70
2020/12/02 09:54:09;;;;;;;81.40;39.67;;;;;;;2.08;86.11;101786.44;5130497;27;20039;-71
2020/12/02 09:56:41;;;;;;;71.43;34.83;;;;;;;1.96;85.72;101792.31;5130031;27;20101;-71
2020/12/02 09:59:10;;;;;;;82.05;36.85;;;;;;;2.08;85.69;101781.16;5130497;27;20125;-71
2020/12/02 10:02:03;;;;;;;85.07;40.25;;;;;;;2.00;86.04;101787.75;5138395;27;20047;-71
2020/12/02 10:04:53;;;;;;;76.97;34.50;;;;;;;2.02;85.48;101781.47;5110362;28;20035;-71
2020/12/02 10:07:29;;;;;;;76.55;35.08;;;;;;;1.95;85.66;101772.19;5123769;28;20078;-70
2020/12/02 10:10:08;;;;;;;81.95;37.70;;;;;;;2.01;85.66;101774.50;5096696;28;20413;-70
2020/12/02 10:12:55;;;;;;;76.65;37.60;;;;;;;2.33;85.41;101772.75;5114190;28;20493;-70
2020/12/02 10:15:44;;;;;;;72.13;35.90;;;;;;;2.62;84.03;101765.03;5096388;28;20432;-71
2020/12/02 10:18:15;;;;;;;78.90;34.67;;;;;;;2.42;83.60;101762.66;5114447;28;20210;-71
2020/12/02 10:20:48;;;;;;;73.40;36.33;;;;;;;2.50;82.73;101750.72;5114188;28;20078;-71
2020/12/02 10:23:21;;;;;;;77.03;35.70;;;;;;;2.59;82.80;101753.78;5113272;28;20027;-71
2020/12/02 10:26:16;;;;;;;66.85;33.58;;;;;;;2.70;81.67;101740.88;5114057;28;20123;-71
2020/12/02 10:28:50;;;;;;;97.32;34.15;;;;;;;2.69;81.36;101739.16;5096371;28;20097;-71
2020/12/02 10:31:30;;;;;;;66.55;32.05;;;;;;;2.49;80.50;101727.09;5096253;28;20118;-71
2020/12/02 10:34:17;;;;;;;69.47;33.25;;;;;;;2.58;80.69;101731.88;5114122;28;20054;-71
2020/12/02 10:36:51;;;;;;;62.10;30.45;;;;;;;3.28;78.89;101716.38;5113288;28;20027;-71
2020/12/02 10:39:24;;;;;;;59.17;29.20;;;;;;;3.91;75.40;101703.72;5114121;28;20050;-71
2020/12/02 10:42:27;;;;;;;55.45;29.58;;;;;;;3.59;76.00;101696.03;5113793;28;20043;-70
2020/12/02 10:45:06;;;;;;;57.85;30.08;;;;;;;3.74;74.74;101689.78;5113779;28;20039;-70
2020/12/02 10:48:02;;;;;;;58.10;31.27;;;;;;;4.38;72.71;101678.75;5095555;28;20041;-71
2020/12/02 10:50:31;;;;;;;48.55;25.83;;;;;;;4.91;69.28;101669.03;5113837;28;20069;-71
2020/12/02 10:53:00;;;;;;;49.75;27.63;;;;;;;4.40;72.05;101674.16;5095574;28;20089;-70
2020/12/02 10:55:36;;;;;;;58.88;29.23;;;;;;;4.16;73.54;101660.75;5095447;28;20063;-71
2020/12/02 10:58:13;;;;;;;54.13;28.92;;;;;;;4.79;70.36;101664.56;5113451;28;20040;-71
2020/12/02 11:00:39;;;;;;;54.17;29.83;;;;;;;5.43;69.86;101665.50;5095487;28;20058;-70
2020/12/02 11:03:21;;;;;;;51.63;27.17;;;;;;;5.42;67.47;101660.28;5113610;28;20032;-70
2020/12/02 11:06:20;;;;;;;52.50;27.70;;;;;;;4.64;70.85;101655.88;5095419;28;20284;-71
2020/12/02 11:09:24;;;;;;;54.78;27.83;;;;;;;5.17;69.64;101656.66;5095626;28;20058;-70
2020/12/02 11:12:14;;;;;;;51.42;27.27;;;;;;;4.91;69.91;101647.88;5113472;28;20035;-71
2020/12/02 11:15:02;;;;;;;56.55;28.38;;;;;;;4.21;71.48;101648.94;5112430;28;20040;-71
2020/12/02 11:17:53;;;;;;;56.90;28.70;;;;;;;4.06;70.66;101642.00;5111942;28;20050;-71
2020/12/02 11:20:36;;;;;;;52.17;26.42;;;;;;;3.29;73.49;101638.88;5112316;28;20047;-70
2020/12/02 11:23:34;;;;;;;46.90;25.63;;;;;;;3.49;73.60;101635.00;5113089;28;20031;-71
2020/12/02 11:26:11;;;;;;;54.00;29.20;;;;;;;2.91;75.21;101631.47;5094821;28;20020;-71
2020/12/02 11:28:41;;;;;;;56.42;29.90;;;;;;;2.77;76.28;101630.59;5095046;28;20409;-70
2020/12/02 11:31:37;;;;;;;63.45;29.17;;;;;;;2.81;75.43;101635.59;5112775;28;20093;-71
2020/12/02 11:34:25;;;;;;;58.05;29.88;;;;;;;2.59;77.10;101627.25;5094907;28;20364;-70
2020/12/02 11:37:03;;;;;;;52.38;27.38;;;;;;;3.19;74.17;101616.63;5112568;28;20447;-70
2020/12/02 11:39:39;;;;;;;48.80;27.88;;;;;;;3.77;72.38;101613.00;5112932;28;20503;-71
2020/12/02 11:42:14;;;;;;;;;;;;;;;3.78;71.05;101601.47;5113176;28;20043;-71
2020/12/02 11:45:02;;;;;;;51.70;26.35;;;;;;;4.18;70.62;101598.91;5112733;28;20310;-71
2020/12/02 11:47:42;;;;;;;50.08;27.27;;;;;;;4.79;69.08;101590.50;5077642;28;20028;-71
2020/12/02 11:50:17;;;;;;;51.15;27.23;;;;;;;5.19;67.67;101588.59;5111746;28;20031;-71
2020/12/02 11:52:59;;;;;;;52.13;27.43;;;;;;;3.87;70.05;101586.00;5112646;28;20047;-71
2020/12/02 11:55:24;;;;;;;59.95;31.50;;;;;;;3.28;73.50;101583.56;5094429;28;20407;-71
2020/12/02 11:57:54;;;;;;;44.83;22.13;;;;;;;4.32;70.98;101576.84;5094445;28;20055;-71
2020/12/02 12:00:19;;;;;;;49.90;27.27;;;;;;;4.49;70.01;101581.00;5094331;28;20040;-71
2020/12/02 12:03:03;;;;;;;47.70;26.27;;;;;;;3.98;70.40;101584.38;5077575;28;20368;-71
2020/12/02 12:05:36;;;;;;;52.53;28.85;;;;;;;4.16;70.56;101568.25;5112331;28;20285;-70
2020/12/02 12:08:22;;;;;;;50.42;26.75;;;;;;;4.68;68.52;101577.13;5112266;28;20089;-71
2020/12/02 12:10:54;;;;;;;49.30;25.50;;;;;;;4.05;68.77;101568.09;5077438;28;20039;-71
2020/12/02 12:13:27;;;;;;;47.97;25.67;;;;;;;4.24;69.88;101565.97;5094309;28;20035;-70
2020/12/02 12:16:07;;;;;;;50.05;26.45;;;;;;;4.53;68.51;101553.44;5111797;28;20023;-71
2020/12/02 12:18:39;;;;;;;52.17;26.80;;;;;;;5.25;66.01;101551.09;5112132;28;20036;-71
2020/12/02 12:21:43;;;;;;;49.42;27.42;;;;;;;3.87;70.70;101549.03;5112056;28;20043;-70
2020/12/02 12:24:14;;;;;;;54.45;27.23;;;;;;;4.28;70.52;101541.00;5111294;28;20043;-70
2020/12/02 12:26:50;;;;;;;47.22;26.20;;;;;;;4.56;67.73;101539.97;5076952;28;20036;-70
2020/12/02 12:29:15;;;;;;;57.83;28.25;;;;;;;4.70;68.96;101530.28;5112035;28;20100;-70
2020/12/02 12:31:46;;;;;;;52.63;29.13;;;;;;;4.13;69.69;101527.00;5111236;28;20043;-70
2020/12/02 12:34:34;;;;;;;53.80;28.13;;;;;;;3.51;71.32;101516.09;5111671;28;20126;-70
2020/12/02 12:37:09;;;;;;;50.95;28.38;;;;;;;3.50;72.82;101517.03;5111445;28;20035;-70
2020/12/02 12:39:57;;;;;;;57.30;31.17;;;;;;;3.50;72.42;101517.03;5111854;28;20082;-69